sensor_id;sensor_type;location;lat;lon;timestamp;P1;durP1;ratioP1;P2;durP2;ratioP2
28068;SDS011;15382;47.578;8.086;2023-03-03T00:02:50;63.95;;;23.77;;
28068;SDS011;15382;47.578;8.086;2023-03-03T00:12:51;63.00;;;23.58;;
28068;SDS011;15382;47.578;8.086;2023-03-03T00:22:53;81.03;;;27.92;;
28068;SDS011;15382;47.578;8.086;2023-03-03T00:32:54;69.05;;;24.27;;
28068;SDS011;15382;47.578;8.086;2023-03-03T00:42:57;61.65;;;22.65;;
28068;SDS011;15382;47.578;8.086;2023-03-03T00:53:06;76.55;;;27.50;;
28068;SDS011;15382;47.578;8.086;2023-03-03T01:03:12;73.38;;;26.00;;
28068;SDS011;15382;47.578;8.086;2023-03-03T01:13:26;63.92;;;25.52;;
28068;SDS011;15382;47.578;8.086;2023-03-03T01:23:29;76.57;;;26.48;;
28068;SDS011;15382;47.578;8.086;2023-03-03T01:33:31;78.38;;;26.58;;
28068;SDS011;15382;47.578;8.086;2023-03-03T01:43:33;73.97;;;25.73;;
28068;SDS011;15382;47.578;8.086;2023-03-03T01:53:36;74.65;;;27.52;;
28068;SDS011;15382;47.578;8.086;2023-03-03T02:03:42;65.43;;;24.55;;
28068;SDS011;15382;47.578;8.086;2023-03-03T02:13:43;79.47;;;26.83;;
28068;SDS011;15382;47.578;8.086;2023-03-03T02:23:47;66.15;;;25.05;;
28068;SDS011;15382;47.578;8.086;2023-03-03T02:33:51;65.10;;;24.85;;
28068;SDS011;15382;47.578;8.086;2023-03-03T02:53:57;77.40;;;26.08;;
28068;SDS011;15382;47.578;8.086;2023-03-03T03:04:00;74.22;;;27.10;;
28068;SDS011;15382;47.578;8.086;2023-03-03T03:14:17;66.75;;;26.27;;
28068;SDS011;15382;47.578;8.086;2023-03-03T03:24:18;72.38;;;24.58;;
28068;SDS011;15382;47.578;8.086;2023-03-03T03:34:26;74.80;;;27.05;;
28068;SDS011;15382;47.578;8.086;2023-03-03T03:44:28;66.72;;;26.98;;
28068;SDS011;15382;47.578;8.086;2023-03-03T03:54:29;72.25;;;27.02;;
28068;SDS011;15382;47.578;8.086;2023-03-03T04:04:31;72.28;;;27.92;;
28068;SDS011;15382;47.578;8.086;2023-03-03T04:14:32;85.35;;;28.02;;
28068;SDS011;15382;47.578;8.086;2023-03-03T04:24:33;80.03;;;29.23;;
28068;SDS011;15382;47.578;8.086;2023-03-03T04:34:34;71.45;;;27.27;;
28068;SDS011;15382;47.578;8.086;2023-03-03T04:44:36;76.55;;;26.77;;
28068;SDS011;15382;47.578;8.086;2023-03-03T04:54:37;72.93;;;26.95;;
28068;SDS011;15382;47.578;8.086;2023-03-03T05:04:38;62.47;;;24.58;;
28068;SDS011;15382;47.578;8.086;2023-03-03T05:14:39;73.10;;;24.27;;
28068;SDS011;15382;47.578;8.086;2023-03-03T05:24:40;72.30;;;26.58;;
28068;SDS011;15382;47.578;8.086;2023-03-03T05:34:42;66.28;;;25.40;;
28068;SDS011;15382;47.578;8.086;2023-03-03T05:44:42;63.10;;;24.35;;
28068;SDS011;15382;47.578;8.086;2023-03-03T05:54:43;69.82;;;25.42;;
28068;SDS011;15382;47.578;8.086;2023-03-03T06:04:44;66.40;;;25.67;;
28068;SDS011;15382;47.578;8.086;2023-03-03T06:14:45;71.50;;;25.67;;
28068;SDS011;15382;47.578;8.086;2023-03-03T06:24:45;70.97;;;26.23;;
28068;SDS011;15382;47.578;8.086;2023-03-03T06:34:46;80.25;;;27.83;;
28068;SDS011;15382;47.578;8.086;2023-03-03T06:44:47;75.15;;;28.75;;
28068;SDS011;15382;47.578;8.086;2023-03-03T06:54:48;77.80;;;27.42;;
28068;SDS011;15382;47.578;8.086;2023-03-03T07:04:50;69.20;;;27.13;;
28068;SDS011;15382;47.578;8.086;2023-03-03T07:15:29;62.67;;;24.50;;
28068;SDS011;15382;47.578;8.086;2023-03-03T07:35:40;81.47;;;27.95;;
28068;SDS011;15382;47.578;8.086;2023-03-03T07:45:43;66.57;;;27.85;;
28068;SDS011;15382;47.578;8.086;2023-03-03T07:55:44;71.45;;;27.75;;
28068;SDS011;15382;47.578;8.086;2023-03-03T08:05:49;73.03;;;27.63;;
28068;SDS011;15382;47.578;8.086;2023-03-03T08:15:55;96.35;;;34.92;;
28068;SDS011;15382;47.578;8.086;2023-03-03T08:26:17;75.45;;;26.10;;
28068;SDS011;15382;47.578;8.086;2023-03-03T08:36:19;74.22;;;26.98;;
28068;SDS011;15382;47.578;8.086;2023-03-03T08:46:19;75.85;;;27.45;;
28068;SDS011;15382;47.578;8.086;2023-03-03T09:06:21;66.53;;;27.07;;
28068;SDS011;15382;47.578;8.086;2023-03-03T09:16:22;65.78;;;25.50;;
28068;SDS011;15382;47.578;8.086;2023-03-03T09:26:30;71.33;;;25.97;;
28068;SDS011;15382;47.578;8.086;2023-03-03T09:36:46;78.57;;;28.30;;
28068;SDS011;15382;47.578;8.086;2023-03-03T09:57:15;62.97;;;25.40;;
28068;SDS011;15382;47.578;8.086;2023-03-03T10:07:28;66.35;;;27.05;;
28068;SDS011;15382;47.578;8.086;2023-03-03T10:17:50;60.50;;;25.88;;
28068;SDS011;15382;47.578;8.086;2023-03-03T10:59:31;60.08;;;27.83;;
28068;SDS011;15382;47.578;8.086;2023-03-03T11:40:56;55.30;;;25.63;;
28068;SDS011;15382;47.578;8.086;2023-03-03T11:51:14;57.53;;;26.10;;
28068;SDS011;15382;47.578;8.086;2023-03-03T12:32:19;67.38;;;27.95;;
28068;SDS011;15382;47.578;8.086;2023-03-03T13:34:13;50.50;;;23.83;;
28068;SDS011;15382;47.578;8.086;2023-03-03T14:15:32;53.22;;;25.73;;
28068;SDS011;15382;47.578;8.086;2023-03-03T14:45:57;53.13;;;23.67;;
28068;SDS011;15382;47.578;8.086;2023-03-03T14:56:39;59.40;;;28.45;;
28068;SDS011;15382;47.578;8.086;2023-03-03T15:07:14;66.05;;;28.67;;
28068;SDS011;15382;47.578;8.086;2023-03-03T15:17:33;67.03;;;28.45;;
28068;SDS011;15382;47.578;8.086;2023-03-03T15:27:38;75.72;;;31.38;;
28068;SDS011;15382;47.578;8.086;2023-03-03T15:37:46;80.65;;;32.25;;
28068;SDS011;15382;47.578;8.086;2023-03-03T15:48:13;73.68;;;29.75;;
28068;SDS011;15382;47.578;8.086;2023-03-03T16:19:15;70.10;;;29.23;;
28068;SDS011;15382;47.578;8.086;2023-03-03T16:29:27;70.68;;;30.63;;
28068;SDS011;15382;47.578;8.086;2023-03-03T16:50:06;81.72;;;31.63;;
28068;SDS011;15382;47.578;8.086;2023-03-03T17:10:24;77.63;;;30.27;;
28068;SDS011;15382;47.578;8.086;2023-03-03T18:53:39;78.78;;;30.80;;
28068;SDS011;15382;47.578;8.086;2023-03-03T19:04:14;78.90;;;29.88;;
28068;SDS011;15382;47.578;8.086;2023-03-03T19:24:29;73.07;;;27.93;;
28068;SDS011;15382;47.578;8.086;2023-03-03T19:34:45;72.18;;;29.65;;
28068;SDS011;15382;47.578;8.086;2023-03-03T20:06:24;86.57;;;31.88;;
28068;SDS011;15382;47.578;8.086;2023-03-03T20:16:43;84.43;;;30.17;;
28068;SDS011;15382;47.578;8.086;2023-03-03T20:26:57;91.50;;;32.47;;
28068;SDS011;15382;47.578;8.086;2023-03-03T20:37:12;90.60;;;34.53;;
28068;SDS011;15382;47.578;8.086;2023-03-03T21:07:56;87.63;;;33.65;;
28068;SDS011;15382;47.578;8.086;2023-03-03T21:18:17;101.35;;;35.88;;
28068;SDS011;15382;47.578;8.086;2023-03-03T21:38:31;109.32;;;38.47;;
28068;SDS011;15382;47.578;8.086;2023-03-03T21:48:33;113.32;;;41.05;;
28068;SDS011;15382;47.578;8.086;2023-03-03T21:58:34;109.28;;;39.67;;
28068;SDS011;15382;47.578;8.086;2023-03-03T22:08:36;103.20;;;38.58;;
28068;SDS011;15382;47.578;8.086;2023-03-03T22:18:37;91.35;;;34.45;;
28068;SDS011;15382;47.578;8.086;2023-03-03T22:28:38;99.18;;;36.88;;
28068;SDS011;15382;47.578;8.086;2023-03-03T22:38:39;98.97;;;36.75;;
28068;SDS011;15382;47.578;8.086;2023-03-03T22:48:40;93.28;;;33.35;;
28068;SDS011;15382;47.578;8.086;2023-03-03T22:58:41;95.90;;;31.98;;
28068;SDS011;15382;47.578;8.086;2023-03-03T23:08:45;102.03;;;36.03;;
28068;SDS011;15382;47.578;8.086;2023-03-03T23:18:45;101.53;;;36.13;;
28068;SDS011;15382;47.578;8.086;2023-03-03T23:28:46;89.00;;;32.83;;
28068;SDS011;15382;47.578;8.086;2023-03-03T23:38:47;90.13;;;31.45;;
28068;SDS011;15382;47.578;8.086;2023-03-03T23:48:48;76.80;;;29.80;;
28068;SDS011;15382;47.578;8.086;2023-03-03T23:58:48;83.47;;;27.83;;
